Time;durP1;ratioP1;P1;durP2;ratioP2;P2;SDS_P1;SDS_P2;PMS_P1;PMS_P2;Temp;Humidity;BMP_temperature;BMP_pressure;BME280_temperature;BME280_humidity;BME280_pressure;Samples;Min_cycle;Max_cycle;Signal;HPM_P1;HPM_P2
2021/09/10 00:01:04;;;;;;;3.60;3.30;;;;;;;22.45;87.16;97394.69;4985950;28;20645;-64
2021/09/10 00:03:31;;;;;;;4.00;3.60;;;;;;;22.46;87.23;97396.41;4989379;28;20254;-64
2021/09/10 00:05:58;;;;;;;4.07;3.43;;;;;;;22.47;87.17;97400.72;4983910;28;20199;-64
2021/09/10 00:08:25;;;;;;;4.43;3.30;;;;;;;22.46;87.10;97404.97;4983138;28;20231;-64
2021/09/10 00:10:51;;;;;;;3.97;3.33;;;;;;;22.24;87.25;97366.00;4981175;28;20245;-63
2021/09/10 00:13:18;;;;;;;4.10;3.23;;;;;;;22.26;87.13;97369.50;4977471;28;20344;-65
2021/09/10 00:15:45;;;;;;;3.93;3.53;;;;;;;22.45;87.11;97390.44;4983779;28;20207;-64
2021/09/10 00:18:11;;;;;;;3.40;3.10;;;;;;;22.42;87.26;97392.06;4978834;28;20258;-64
2021/09/10 00:20:38;;;;;;;4.17;3.00;;;;;;;22.28;87.23;97368.69;4980389;28;20294;-64
2021/09/10 00:23:04;;;;;;;4.50;3.53;;;;;;;22.46;87.55;97404.97;4986057;28;20258;-64
2021/09/10 00:25:31;;;;;;;3.73;3.10;;;;;;;22.37;86.84;97389.38;4986128;28;20715;-65
2021/09/10 00:27:57;;;;;;;4.37;3.40;;;;;;;22.44;87.25;97398.09;4982916;28;20239;-64
2021/09/10 00:30:24;;;;;;;3.50;3.20;;;;;;;22.42;87.38;97394.63;4984248;28;20207;-64
2021/09/10 00:32:51;;;;;;;3.27;2.97;;;;;;;22.46;87.05;97406.66;4967056;28;20227;-65
2021/09/10 00:35:17;;;;;;;3.33;3.03;;;;;;;22.45;87.25;97405.81;4977274;28;20219;-67
2021/09/10 00:37:44;;;;;;;3.40;3.10;;;;;;;22.45;87.16;97398.13;4981354;28;20285;-66
2021/09/10 00:40:11;;;;;;;3.50;3.20;;;;;;;22.39;87.26;97390.28;4983439;28;20809;-65
2021/09/10 00:42:37;;;;;;;3.57;3.27;;;;;;;22.46;87.36;97396.41;4987372;28;20237;-64
2021/09/10 00:45:04;;;;;;;3.70;3.40;;;;;;;22.34;87.37;97381.63;4984640;28;20218;-66
2021/09/10 00:47:31;;;;;;;3.17;2.87;;;;;;;22.42;87.29;97397.19;4968774;28;20238;-64
2021/09/10 00:49:57;;;;;;;3.17;2.90;;;;;;;22.27;87.10;97369.53;4985676;28;20226;-64
2021/09/10 00:52:24;;;;;;;4.00;3.30;;;;;;;22.45;87.39;97400.69;4982557;28;20313;-64
2021/09/10 00:54:51;;;;;;;4.03;3.23;;;;;;;22.45;87.06;97400.69;4979651;28;20208;-66
2021/09/10 00:57:18;;;;;;;5.33;3.50;;;;;;;22.45;86.78;97404.94;4975885;28;20290;-65
2021/09/10 00:59:45;;;;;;;3.77;2.93;;;;;;;22.46;87.28;97406.66;4982366;28;20249;-64
2021/09/10 01:02:12;;;;;;;3.17;2.87;;;;;;;22.45;87.40;97405.81;4982542;28;20258;-64
2021/09/10 01:04:39;;;;;;;3.47;3.17;;;;;;;22.45;87.31;97405.81;4983691;28;20711;-69
2021/09/10 01:07:06;;;;;;;3.47;3.03;;;;;;;22.46;87.61;97409.22;4970102;28;20289;-64
2021/09/10 01:09:33;;;;;;;3.50;3.20;;;;;;;22.46;86.87;97411.78;4978981;28;20741;-65
2021/09/10 01:11:59;;;;;;;3.53;3.23;;;;;;;22.39;87.03;97397.09;4980710;28;20897;-64
2021/09/10 01:14:26;;;;;;;3.53;3.23;;;;;;;22.45;87.31;97410.94;4982182;28;20286;-66
2021/09/10 01:16:52;;;;;;;3.40;3.10;;;;;;;22.45;87.36;97405.81;4970935;28;20965;-64
2021/09/10 01:19:27;;;;;;;5.37;3.00;;;;;;;22.27;87.51;97379.75;4984945;28;20241;-64
2021/09/10 01:21:56;;;;;;;3.47;3.17;;;;;;;22.45;87.45;97408.38;4977695;28;20288;-63
2021/09/10 01:24:36;;;;;;;3.67;3.03;;;;;;;22.45;87.25;97404.94;4981812;28;20285;-64
2021/09/10 01:27:03;;;;;;;3.63;3.03;;;;;;;22.40;87.19;97399.69;4981005;28;20227;-65
2021/09/10 01:29:31;;;;;;;4.23;3.47;;;;;;;22.45;87.38;97402.38;4977723;28;20242;-64
2021/09/10 01:31:57;;;;;;;3.57;2.90;;;;;;;22.42;86.98;97399.72;4969183;28;20600;-65
2021/09/10 01:34:24;;;;;;;3.00;2.70;;;;;;;22.39;86.80;97397.97;4975991;28;20300;-65
2021/09/10 01:36:50;;;;;;;3.30;3.00;;;;;;;22.44;87.38;97406.63;4964849;28;20313;-64
2021/09/10 01:39:17;;;;;;;3.57;3.20;;;;;;;22.42;87.40;97404.84;4982436;28;20242;-64
2021/09/10 01:41:44;;;;;;;3.67;3.10;;;;;;;22.44;87.01;97416.84;4986554;28;20265;-66
2021/09/10 01:44:10;;;;;;;2.93;2.73;;;;;;;22.43;87.22;97412.56;4978503;28;20247;-64
2021/09/10 01:46:37;;;;;;;2.87;2.63;;;;;;;22.44;86.97;97416.00;4981540;28;20293;-64
2021/09/10 01:49:03;;;;;;;3.50;3.20;;;;;;;22.44;87.37;97416.84;4986927;28;20677;-64
2021/09/10 01:51:31;;;;;;;3.10;2.80;;;;;;;22.44;87.33;97418.56;4980511;28;20323;-66
2021/09/10 01:53:58;;;;;;;3.67;2.90;;;;;;;22.45;87.32;97420.28;4981246;28;20677;-65
2021/09/10 01:56:25;;;;;;;3.33;3.03;;;;;;;21.98;87.38;97347.47;4982464;28;20234;-65
2021/09/10 01:58:51;;;;;;;3.10;2.80;;;;;;;22.42;86.97;97426.22;4985082;28;20234;-65
2021/09/10 02:01:25;;;;;;;3.20;2.90;;;;;;;22.04;87.30;97355.28;4982266;28;20643;-65
2021/09/10 02:03:52;;;;;;;3.90;3.40;;;;;;;22.39;87.42;97415.03;4985276;28;20227;-65
2021/09/10 02:06:19;;;;;;;3.10;2.80;;;;;;;22.27;87.22;97394.25;4967007;28;20312;-68
2021/09/10 02:08:45;;;;;;;3.40;3.03;;;;;;;22.39;87.40;97405.66;4984278;28;20214;-65
2021/09/10 02:11:12;;;;;;;3.33;2.97;;;;;;;21.97;87.38;97332.06;4974612;28;20207;-65
2021/09/10 02:13:39;;;;;;;3.53;3.23;;;;;;;22.01;87.33;97346.66;4983204;28;20582;-64
2021/09/10 02:16:05;;;;;;;3.27;2.97;;;;;;;22.42;87.39;97405.72;4973848;28;20238;-64
2021/09/10 02:18:32;;;;;;;3.73;2.90;;;;;;;22.43;87.50;97406.56;4976799;28;20294;-65
2021/09/10 02:20:59;;;;;;;3.33;3.00;;;;;;;22.39;87.36;97397.09;4977094;28;20294;-64
2021/09/10 02:23:26;;;;;;;3.13;2.80;;;;;;;22.44;87.35;97408.34;4974972;28;20244;-68
2021/09/10 02:25:53;;;;;;;3.37;2.80;;;;;;;22.26;87.14;97372.03;4979062;28;20206;-65
2021/09/10 02:28:20;;;;;;;3.53;3.23;;;;;;;22.43;87.52;97409.13;4974273;28;20235;-65
2021/09/10 02:30:46;;;;;;;4.53;3.13;;;;;;;22.44;87.30;97408.34;4983054;28;20293;-66
2021/09/10 02:33:13;;;;;;;3.07;2.87;;;;;;;22.43;87.17;97411.69;4985658;28;20704;-65
2021/09/10 02:35:40;;;;;;;3.60;3.07;;;;;;;22.39;87.33;97403.09;4981312;28;20286;-64
2021/09/10 02:38:07;;;;;;;2.97;2.77;;;;;;;22.38;87.66;97406.47;4977417;28;20246;-65
2021/09/10 02:40:34;;;;;;;3.63;3.20;;;;;;;22.43;87.29;97415.13;4981417;28;20231;-66
2021/09/10 02:43:00;;;;;;;3.30;3.00;;;;;;;22.44;87.40;97416.00;4984756;28;20269;-64
2021/09/10 02:45:27;;;;;;;3.00;2.80;;;;;;;22.43;87.40;97419.38;4984209;28;20250;-64
2021/09/10 02:47:53;;;;;;;2.90;2.70;;;;;;;22.43;87.48;97419.38;4979941;28;20656;-65
2021/09/10 02:50:20;;;;;;;3.20;3.00;;;;;;;22.43;87.42;97415.13;4981051;28;20298;-65
2021/09/10 02:52:49;;;;;;;3.20;2.90;;;;;;;22.44;87.47;97418.56;4976459;28;20341;-64
2021/09/10 02:55:15;;;;;;;2.63;2.43;;;;;;;22.42;87.38;97413.41;4988872;28;20439;-65
2021/09/10 02:57:42;;;;;;;3.20;2.90;;;;;;;22.43;87.58;97416.81;4980885;28;20231;-67
2021/09/10 03:00:09;;;;;;;3.43;3.00;;;;;;;22.37;87.57;97404.75;4980133;28;20207;-65
2021/09/10 03:02:35;;;;;;;5.30;3.67;;;;;;;22.39;87.44;97407.34;4977219;28;20250;-66
2021/09/10 03:05:04;;;;;;;3.10;2.80;;;;;;;22.39;87.24;97408.22;4981959;28;20226;-63
2021/09/10 03:07:30;;;;;;;3.43;3.13;;;;;;;22.44;87.42;97410.88;4983074;28;20628;-65
2021/09/10 03:09:57;;;;;;;3.13;2.90;;;;;;;22.42;87.48;97418.53;4986951;28;20203;-64
2021/09/10 03:12:24;;;;;;;2.93;2.73;;;;;;;22.37;87.74;97404.75;4979497;28;20388;-64
2021/09/10 03:14:50;;;;;;;3.83;3.17;;;;;;;22.29;87.40;97390.88;4976295;28;20673;-65
2021/09/10 03:17:17;;;;;;;3.30;3.00;;;;;;;22.38;87.77;97406.47;4982981;28;20300;-67
2021/09/10 03:19:43;;;;;;;2.77;2.57;;;;;;;22.42;87.44;97418.53;4970149;28;20657;-64
2021/09/10 03:22:10;;;;;;;3.13;2.83;;;;;;;22.30;87.37;97396.88;4977178;28;20266;-65
2021/09/10 03:24:37;;;;;;;3.23;2.90;;;;;;;22.37;87.57;97409.00;4973138;28;20657;-65
2021/09/10 03:27:03;;;;;;;3.30;2.90;;;;;;;22.37;87.47;97401.31;4985830;28;20231;-63
2021/09/10 03:29:30;;;;;;;2.80;2.60;;;;;;;22.42;87.55;97409.97;4980486;28;20231;-63
2021/09/10 03:31:56;;;;;;;3.30;3.00;;;;;;;22.43;87.49;97411.69;4976542;28;20223;-63
2021/09/10 03:34:26;;;;;;;2.90;2.70;;;;;;;22.42;87.41;97408.28;4977719;28;20287;-64
2021/09/10 03:36:53;;;;;;;2.80;2.60;;;;;;;22.43;87.51;97416.81;4988194;28;20221;-64
2021/09/10 03:39:19;;;;;;;3.20;2.90;;;;;;;22.42;87.49;97412.53;4985799;28;20231;-64
2021/09/10 03:41:46;;;;;;;3.27;2.97;;;;;;;22.42;87.36;97407.41;4987086;28;20238;-65
2021/09/10 03:44:12;;;;;;;3.30;3.00;;;;;;;22.42;87.36;97415.09;4976456;28;20562;-63
2021/09/10 03:46:39;;;;;;;3.50;3.20;;;;;;;22.21;87.59;97382.19;4979784;28;20208;-65
2021/09/10 03:49:06;;;;;;;3.13;2.83;;;;;;;22.41;87.51;97414.22;4980702;28;20273;-64
2021/09/10 03:51:32;;;;;;;2.93;2.73;;;;;;;22.42;87.49;97421.09;4977695;28;20255;-67
2021/09/10 03:53:59;;;;;;;2.90;2.70;;;;;;;22.42;87.30;97420.22;4981951;28;20289;-65
2021/09/10 03:56:26;;;;;;;3.20;2.90;;;;;;;22.42;87.54;97415.97;4977293;28;20244;-65
2021/09/10 03:58:52;;;;;;;3.40;3.10;;;;;;;22.42;87.22;97415.97;4979881;28;20381;-64
2021/09/10 04:01:19;;;;;;;3.20;2.90;;;;;;;22.42;87.47;97413.41;4981562;28;20230;-65
2021/09/10 04:03:46;;;;;;;2.83;2.63;;;;;;;22.43;87.41;97411.69;4980776;28;20208;-66
2021/09/10 04:06:12;;;;;;;3.13;2.90;;;;;;;22.41;87.55;97413.38;4982075;28;20625;-65
2021/09/10 04:08:40;;;;;;;3.20;2.90;;;;;;;22.40;87.46;97415.06;4987219;28;20261;-65
2021/09/10 04:11:07;;;;;;;2.80;2.60;;;;;;;22.39;87.59;97409.91;4985626;28;20231;-64
2021/09/10 04:13:34;;;;;;;3.17;2.97;;;;;;;22.41;87.54;97419.34;4986498;28;20207;-64
2021/09/10 04:16:01;;;;;;;2.93;2.73;;;;;;;22.43;87.66;97419.38;4980196;28;20199;-65
2021/09/10 04:18:28;;;;;;;3.27;3.03;;;;;;;22.41;87.48;97421.91;4984765;28;20994;-65
2021/09/10 04:20:54;;;;;;;3.20;2.90;;;;;;;22.41;87.41;97419.34;4985827;28;20262;-64
2021/09/10 04:23:21;;;;;;;3.20;2.90;;;;;;;22.42;87.65;97413.41;4980136;28;20254;-67
2021/09/10 04:25:47;;;;;;;3.10;2.80;;;;;;;22.41;87.72;97411.66;4984946;28;20338;-66
2021/09/10 04:28:14;;;;;;;3.63;3.07;;;;;;;22.41;87.68;97413.38;4987153;28;20234;-64
2021/09/10 04:30:41;;;;;;;3.47;3.10;;;;;;;22.41;87.19;97411.66;4985485;28;20302;-64
2021/09/10 04:33:08;;;;;;;3.20;3.00;;;;;;;22.37;87.66;97409.00;4986033;28;20223;-64
2021/09/10 04:35:37;;;;;;;3.50;2.83;;;;;;;22.29;87.34;97393.44;4985936;28;20226;-64
2021/09/10 04:38:04;;;;;;;2.87;2.67;;;;;;;22.40;87.77;97415.06;4986472;28;20227;-63
2021/09/10 04:40:30;;;;;;;2.80;2.60;;;;;;;22.42;87.69;97417.66;4987766;28;20230;-64
2021/09/10 04:42:57;;;;;;;3.27;2.97;;;;;;;22.41;87.50;97416.78;4986628;28;20305;-62
2021/09/10 04:45:23;;;;;;;5.43;3.00;;;;;;;22.42;87.96;97415.09;4986544;28;20332;-62
2021/09/10 04:47:50;;;;;;;4.80;2.87;;;;;;;22.32;87.57;97401.19;4979268;28;20847;-64
2021/09/10 04:50:17;;;;;;;3.13;2.90;;;;;;;22.21;87.36;97389.84;4969259;28;20754;-64
2021/09/10 04:52:43;;;;;;;2.73;2.53;;;;;;;22.39;87.41;97420.16;4983617;28;20218;-64
2021/09/10 04:55:11;;;;;;;3.50;3.20;;;;;;;22.42;87.35;97425.34;4982542;28;20218;-64
2021/09/10 04:57:38;;;;;;;3.23;2.90;;;;;;;22.26;87.60;97389.97;4987389;28;20825;-64
2021/09/10 05:00:05;;;;;;;3.47;2.83;;;;;;;22.45;87.76;97420.28;4983666;28;20616;-64
2021/09/10 05:02:32;;;;;;;3.30;2.97;;;;;;;22.41;87.75;97410.81;4987185;28;20309;-64
2021/09/10 05:04:59;;;;;;;2.90;2.70;;;;;;;22.42;88.15;97408.28;4983710;28;20934;-64
2021/09/10 05:07:26;;;;;;;3.33;3.03;;;;;;;22.42;88.11;97405.72;4975684;28;20238;-66
2021/09/10 05:09:52;;;;;;;3.40;3.10;;;;;;;22.48;87.97;97412.69;4986241;28;20298;-65
2021/09/10 05:12:19;;;;;;;4.07;3.50;;;;;;;22.48;87.82;97412.69;4984347;28;20230;-63
2021/09/10 05:14:45;;;;;;;3.53;3.23;;;;;;;22.47;88.07;97410.97;4987200;28;20203;-64
2021/09/10 05:17:12;;;;;;;3.20;3.00;;;;;;;22.49;88.35;97409.28;4985221;28;20234;-65
2021/09/10 05:19:39;;;;;;;3.00;2.80;;;;;;;22.32;87.91;97377.31;4981865;28;20245;-66
2021/09/10 05:22:05;;;;;;;3.40;3.10;;;;;;;22.50;87.93;97409.34;4984478;28;20315;-65
2021/09/10 05:24:32;;;;;;;3.33;3.03;;;;;;;22.50;88.07;97417.03;4985490;28;20234;-65
2021/09/10 05:26:58;;;;;;;3.47;3.17;;;;;;;22.51;88.36;97407.66;4987428;28;20269;-65
2021/09/10 05:29:25;;;;;;;3.47;3.17;;;;;;;22.46;87.63;97404.09;4961179;28;20673;-66
2021/09/10 05:31:51;;;;;;;3.30;3.00;;;;;;;22.33;87.67;97387.59;4980630;28;20250;-64
2021/09/10 05:34:18;;;;;;;3.57;3.27;;;;;;;22.51;87.92;97415.34;4975936;28;20198;-65
2021/09/10 05:36:45;;;;;;;3.60;3.30;;;;;;;22.47;87.97;97414.38;4979225;28;20206;-65
2021/09/10 05:39:11;;;;;;;3.97;3.60;;;;;;;22.52;87.95;97422.19;4979959;28;20253;-65
2021/09/10 05:41:38;;;;;;;3.70;3.40;;;;;;;21.98;87.83;97333.78;5009759;23;20227;-62
2021/09/10 05:44:05;;;;;;;3.83;3.50;;;;;;;22.52;88.00;97432.44;4966440;28;20219;-63
2021/09/10 05:46:31;;;;;;;3.30;3.03;;;;;;;22.53;88.00;97431.63;4987098;28;20277;-66
2021/09/10 05:48:58;;;;;;;3.40;3.10;;;;;;;22.52;87.88;97429.88;4991175;28;20918;-65
2021/09/10 05:51:24;;;;;;;3.33;3.10;;;;;;;22.20;87.81;97385.53;4996354;28;20211;-66
2021/09/10 05:53:51;;;;;;;3.60;3.30;;;;;;;22.54;87.95;97443.59;4989500;28;20305;-66
2021/09/10 05:56:18;;;;;;;3.50;3.20;;;;;;;22.54;87.84;97443.59;4995912;28;20644;-66
2021/09/10 05:58:44;;;;;;;3.50;3.20;;;;;;;22.55;87.80;97442.75;4988988;28;20234;-65
2021/09/10 06:01:11;;;;;;;3.13;2.93;;;;;;;22.54;87.48;97447.03;4980638;28;20282;-65
2021/09/10 06:03:38;;;;;;;4.20;3.60;;;;;;;22.56;87.60;97445.34;4987147;28;20606;-65
2021/09/10 06:06:09;;;;;;;3.60;3.30;;;;;;;22.56;87.62;97447.06;4979558;28;20219;-66
2021/09/10 06:08:36;;;;;;;4.07;3.40;;;;;;;22.57;87.54;97446.22;4985230;28;20800;-65
2021/09/10 06:11:03;;;;;;;4.20;3.80;;;;;;;22.57;87.56;97442.00;4992182;28;20303;-66
2021/09/10 06:13:30;;;;;;;4.60;4.13;;;;;;;22.57;87.37;97443.66;4987271;28;20289;-67
2021/09/10 06:15:57;;;;;;;4.70;4.27;;;;;;;22.58;87.38;97443.72;4991140;28;20750;-65
2021/09/10 06:18:23;;;;;;;5.07;4.57;;;;;;;22.57;87.31;97444.56;4989862;28;20630;-66
2021/09/10 06:20:50;;;;;;;4.97;4.47;;;;;;;22.57;87.38;97444.56;4991323;28;20294;-63
2021/09/10 06:23:17;;;;;;;4.90;4.40;;;;;;;22.57;87.14;97447.09;4985936;28;20233;-65
2021/09/10 06:25:43;;;;;;;6.87;5.70;;;;;;;22.57;87.11;97446.22;4989668;28;20273;-66
2021/09/10 06:28:11;;;;;;;6.07;5.50;;;;;;;22.57;86.97;97447.09;4982509;28;20257;-66
2021/09/10 06:30:38;;;;;;;10.63;6.30;;;;;;;22.57;86.98;97451.34;4990598;28;20290;-66
2021/09/10 06:33:04;;;;;;;7.97;5.83;;;;;;;22.57;86.80;97451.34;4982079;28;20223;-65
2021/09/10 06:35:31;;;;;;;6.50;5.90;;;;;;;22.56;86.98;97444.50;4988188;28;20780;-66
2021/09/10 06:37:58;;;;;;;9.50;7.03;;;;;;;22.55;86.93;97443.63;4991407;28;20210;-66
2021/09/10 06:40:24;;;;;;;8.80;7.90;;;;;;;22.56;87.12;97449.63;4986241;28;20205;-66
2021/09/10 06:42:52;;;;;;;8.40;7.63;;;;;;;22.55;87.16;97446.19;4990564;28;20244;-66
2021/09/10 06:45:18;;;;;;;8.70;7.90;;;;;;;22.55;86.84;97448.75;4982051;28;20270;-66
2021/09/10 06:47:45;;;;;;;9.60;8.00;;;;;;;22.54;87.27;97449.59;4986551;28;20253;-65
2021/09/10 06:50:11;;;;;;;9.33;8.43;;;;;;;22.54;86.87;97448.72;4985725;28;20261;-66
2021/09/10 06:52:39;;;;;;;10.10;8.10;;;;;;;22.53;87.28;97447.00;4989657;28;20218;-63
2021/09/10 06:55:06;;;;;;;9.30;8.30;;;;;;;22.53;87.09;97452.97;4989563;28;20567;-66
2021/09/10 06:57:33;;;;;;;8.70;7.90;;;;;;;22.53;87.16;97445.28;4985434;28;20231;-65
2021/09/10 06:59:59;;;;;;;8.57;7.77;;;;;;;22.52;87.29;97441.00;4990636;28;20675;-66
2021/09/10 07:02:26;;;;;;;8.27;7.50;;;;;;;22.53;87.76;97447.00;4993699;28;20270;-66
2021/09/10 07:04:53;;;;;;;9.83;8.20;;;;;;;22.53;87.49;97452.97;4991353;28;20684;-65
2021/09/10 07:07:19;;;;;;;11.43;8.07;;;;;;;22.53;87.96;97447.00;4987538;28;20234;-66
2021/09/10 07:09:46;;;;;;;8.10;7.40;;;;;;;22.55;87.63;97450.44;4994641;28;20747;-67
2021/09/10 07:12:13;;;;;;;7.80;7.00;;;;;;;22.54;87.85;97451.28;4988368;28;20305;-66
2021/09/10 07:14:39;;;;;;;8.27;7.47;;;;;;;22.54;87.52;97448.72;4989653;28;20250;-66
2021/09/10 07:17:06;;;;;;;8.80;7.70;;;;;;;22.54;87.49;97446.16;4988285;28;20262;-65
2021/09/10 07:19:32;;;;;;;8.63;7.83;;;;;;;22.55;87.68;97450.44;4989237;28;20238;-65
2021/09/10 07:21:59;;;;;;;8.43;7.43;;;;;;;22.54;87.43;97452.16;4999417;28;20694;-66
2021/09/10 07:24:26;;;;;;;12.37;7.73;;;;;;;22.56;88.38;97452.19;4993505;28;20289;-66
2021/09/10 07:26:52;;;;;;;11.63;7.67;;;;;;;22.57;88.15;97466.72;4993837;28;20396;-66
2021/09/10 07:29:19;;;;;;;9.00;8.17;;;;;;;22.56;88.05;97455.59;4991099;28;20215;-66
2021/09/10 07:31:47;;;;;;;8.80;7.73;;;;;;;22.57;87.88;97467.59;4992727;28;20927;-65
2021/09/10 07:34:13;;;;;;;8.47;7.27;;;;;;;22.58;86.59;97465.88;5001414;28;20241;-64
2021/09/10 07:36:40;;;;;;;13.17;8.00;;;;;;;22.58;86.89;97471.00;4998018;28;20219;-66
2021/09/10 07:39:06;;;;;;;12.10;7.73;;;;;;;22.59;87.06;97478.72;4993507;28;20238;-64
2021/09/10 07:41:33;;;;;;;7.77;6.97;;;;;;;22.59;87.08;97476.16;4992534;28;20298;-65
2021/09/10 07:44:00;;;;;;;8.83;7.93;;;;;;;22.60;87.03;97474.47;4993485;28;20234;-65
2021/09/10 07:46:26;;;;;;;8.70;7.83;;;;;;;22.59;87.39;97483.84;4991954;28;20227;-65
2021/09/10 07:48:53;;;;;;;9.80;8.00;;;;;;;22.61;87.25;97478.75;5003518;28;20256;-65
2021/09/10 07:51:19;;;;;;;9.27;7.90;;;;;;;22.61;87.28;97476.19;4992322;28;20234;-66
2021/09/10 07:53:46;;;;;;;8.17;7.37;;;;;;;22.62;87.29;97475.41;4993431;28;20258;-65
2021/09/10 07:56:13;;;;;;;8.73;7.83;;;;;;;22.62;87.47;97476.25;4992565;28;20282;-65
2021/09/10 07:58:39;;;;;;;8.67;7.67;;;;;;;22.62;87.12;97466.00;4992579;28;20249;-65
2021/09/10 08:01:06;;;;;;;8.87;7.83;;;;;;;22.51;87.28;97461.44;4991038;28;20644;-65
2021/09/10 08:03:34;;;;;;;8.57;7.73;;;;;;;22.64;87.32;97471.16;4990601;28;20689;-66
2021/09/10 08:06:01;;;;;;;15.27;8.03;;;;;;;22.63;87.18;97483.13;5003317;28;20218;-65
2021/09/10 08:08:28;;;;;;;8.97;8.07;;;;;;;22.64;87.14;97478.84;4990586;28;20254;-65
2021/09/10 08:10:54;;;;;;;7.63;6.93;;;;;;;22.64;87.14;97479.72;4992761;28;20238;-66
2021/09/10 08:13:21;;;;;;;12.07;7.13;;;;;;;22.65;87.19;97478.03;4992229;28;20222;-66
2021/09/10 08:15:47;;;;;;;9.60;7.97;;;;;;;22.64;86.92;97477.16;4992919;28;20692;-65
2021/09/10 08:18:14;;;;;;;8.17;7.03;;;;;;;22.65;87.18;97483.16;4991852;28;20254;-66
2021/09/10 08:20:41;;;;;;;7.97;7.17;;;;;;;22.65;87.12;97481.44;4992266;28;20239;-65
2021/09/10 08:23:07;;;;;;;7.67;6.97;;;;;;;22.65;87.15;97488.28;4992077;28;20317;-66
2021/09/10 08:25:34;;;;;;;7.93;7.23;;;;;;;22.65;87.79;97491.69;4991796;28;20513;-66
2021/09/10 08:28:00;;;;;;;7.77;7.07;;;;;;;22.66;87.10;97484.88;4992282;28;20248;-66
2021/09/10 08:30:27;;;;;;;8.27;6.80;;;;;;;22.66;87.14;97487.44;4991705;28;20222;-65
2021/09/10 08:32:55;;;;;;;7.83;7.00;;;;;;;22.67;87.06;97494.28;4992880;28;20226;-66
2021/09/10 08:35:21;;;;;;;9.03;7.17;;;;;;;22.66;86.66;97493.44;4992065;28;20739;-65
2021/09/10 08:37:48;;;;;;;7.30;6.60;;;;;;;22.66;87.34;97485.75;4992904;28;20306;-65
2021/09/10 08:40:15;;;;;;;7.87;7.07;;;;;;;22.66;87.09;97488.31;4994402;28;20261;-66
2021/09/10 08:42:43;;;;;;;12.50;7.30;;;;;;;22.67;87.09;97491.72;4992732;28;20241;-65
2021/09/10 08:45:10;;;;;;;7.80;6.83;;;;;;;22.66;87.17;97497.69;4992119;28;20286;-66
2021/09/10 08:47:38;;;;;;;8.27;7.20;;;;;;;22.67;87.14;97496.84;4997751;28;20672;-64
2021/09/10 08:50:05;;;;;;;7.50;6.90;;;;;;;22.67;87.18;97500.28;4997501;28;20755;-65
2021/09/10 08:52:31;;;;;;;10.43;6.90;;;;;;;22.67;87.25;97500.28;4990023;28;20650;-66
2021/09/10 08:54:58;;;;;;;7.00;6.30;;;;;;;22.67;87.13;97499.41;4997155;28;20588;-65
2021/09/10 08:57:26;;;;;;;7.40;6.60;;;;;;;22.66;87.10;97498.56;4990830;28;20241;-65
2021/09/10 09:00:07;;;;;;;7.70;6.93;;;;;;;22.67;87.31;97505.41;4992103;28;20285;-66
2021/09/10 09:02:34;;;;;;;7.60;6.90;;;;;;;22.68;87.04;97503.72;4991218;28;20579;-66
2021/09/10 09:05:01;;;;;;;8.43;7.27;;;;;;;22.67;86.83;97505.41;4999124;28;20203;-65
2021/09/10 09:07:28;;;;;;;7.73;7.03;;;;;;;22.68;86.97;97509.69;4991705;28;20310;-66
2021/09/10 09:09:58;;;;;;;7.20;6.50;;;;;;;22.67;87.04;97504.53;4990859;28;20289;-65
2021/09/10 09:12:28;;;;;;;7.23;6.40;;;;;;;22.68;87.05;97503.72;4990636;28;20732;-65
2021/09/10 09:14:58;;;;;;;7.40;6.70;;;;;;;22.68;87.20;97498.59;4982694;28;20233;-66
2021/09/10 09:17:32;;;;;;;6.97;6.27;;;;;;;22.66;87.08;97502.81;4990118;28;20257;-66
2021/09/10 09:20:11;;;;;;;8.77;7.17;;;;;;;22.65;87.24;97501.94;4997323;28;20198;-65
2021/09/10 09:23:01;;;;;;;7.27;6.57;;;;;;;22.66;87.20;97503.69;5001720;28;20261;-65
2021/09/10 09:25:32;;;;;;;6.77;6.10;;;;;;;22.66;87.20;97507.94;4986663;28;20202;-64
2021/09/10 09:28:30;;;;;;;6.80;6.20;;;;;;;22.65;87.13;97509.63;4989254;28;20237;-67
2021/09/10 09:30:58;;;;;;;6.37;5.77;;;;;;;22.65;87.11;97509.63;4991711;28;20289;-66
2021/09/10 09:33:29;;;;;;;7.07;6.37;;;;;;;22.65;87.18;97513.91;4990749;28;20230;-66
2021/09/10 09:35:57;;;;;;;6.80;6.20;;;;;;;22.65;87.12;97501.94;4991495;28;20199;-64
2021/09/10 09:38:26;;;;;;;7.17;6.57;;;;;;;22.66;87.02;97507.94;4993197;28;20202;-65
2021/09/10 09:40:55;;;;;;;7.07;6.37;;;;;;;22.65;87.10;97499.38;4991407;28;20680;-64
2021/09/10 09:43:27;;;;;;;6.80;6.10;;;;;;;22.66;87.44;97502.81;4988584;28;20284;-65
2021/09/10 09:45:54;;;;;;;6.53;5.90;;;;;;;22.65;87.18;97496.81;4991504;28;20598;-66
2021/09/10 09:48:23;;;;;;;7.37;6.67;;;;;;;22.65;87.10;97499.38;4999924;28;20316;-65
2021/09/10 09:50:52;;;;;;;7.03;5.80;;;;;;;22.65;87.30;97498.53;4992826;28;20294;-65
2021/09/10 09:53:19;;;;;;;6.70;6.10;;;;;;;22.65;87.37;97498.53;4990415;28;20226;-65
2021/09/10 09:55:47;;;;;;;6.43;5.83;;;;;;;22.65;87.29;97498.53;4989748;28;20271;-65
2021/09/10 09:58:14;;;;;;;7.20;6.50;;;;;;;22.64;87.31;97489.09;4990019;28;20294;-67
2021/09/10 10:00:41;;;;;;;6.73;6.13;;;;;;;22.64;87.33;97489.09;4989426;28;20365;-65
2021/09/10 10:03:08;;;;;;;6.67;5.67;;;;;;;22.64;87.27;97495.09;4982442;28;20754;-65
2021/09/10 10:06:11;;;;;;;6.23;5.60;;;;;;;22.64;87.30;97489.97;5000608;28;20205;-65
2021/09/10 10:08:46;;;;;;;6.70;6.10;;;;;;;22.64;87.28;97489.09;4908701;29;20209;-63
2021/09/10 10:11:18;;;;;;;6.90;6.30;;;;;;;22.64;87.28;97482.28;4974773;28;20206;-66
2021/09/10 10:13:45;;;;;;;6.73;6.03;;;;;;;22.64;87.30;97484.84;4990248;28;20266;-65
2021/09/10 10:16:43;;;;;;;7.97;5.70;;;;;;;22.64;87.27;97484.84;4988896;28;20237;-65
2021/09/10 10:19:25;;;;;;;6.37;5.77;;;;;;;22.64;87.38;97479.72;4987961;28;20505;-66
2021/09/10 10:21:59;;;;;;;6.30;5.80;;;;;;;22.63;87.32;97475.44;4997807;28;20296;-65
2021/09/10 10:24:52;;;;;;;7.63;5.93;;;;;;;22.64;87.27;97476.28;4992611;28;20230;-64
2021/09/10 10:27:31;;;;;;;5.93;5.43;;;;;;;22.63;87.44;97478.00;4984556;28;20289;-65
2021/09/10 10:29:59;;;;;;;6.23;5.73;;;;;;;22.65;87.25;97483.16;4998412;28;20256;-65
2021/09/10 10:32:30;;;;;;;6.27;5.67;;;;;;;22.64;87.30;97476.28;4990087;28;20312;-67
2021/09/10 10:35:39;;;;;;;6.37;5.60;;;;;;;22.64;87.29;97468.59;4991003;28;20665;-66
2021/09/10 10:38:10;;;;;;;6.10;5.50;;;;;;;22.63;87.15;97467.75;4933442;29;20239;-66
2021/09/10 10:40:47;;;;;;;5.70;5.20;;;;;;;22.64;87.35;97460.91;4982303;28;20532;-66
2021/09/10 10:43:22;;;;;;;6.00;5.50;;;;;;;22.63;87.36;97470.31;4983976;28;20261;-66
2021/09/10 10:45:49;;;;;;;7.03;6.07;;;;;;;22.62;87.32;97458.31;4989408;28;20253;-65
2021/09/10 10:48:43;;;;;;;6.70;6.10;;;;;;;22.63;87.19;97449.81;4999034;28;20443;-65
2021/09/10 10:51:12;;;;;;;6.17;5.63;;;;;;;22.63;87.22;97454.06;4981478;28;20497;-66
2021/09/10 10:53:45;;;;;;;6.67;5.97;;;;;;;22.62;87.27;97445.50;4993872;28;20227;-66
2021/09/10 10:56:33;;;;;;;6.53;5.50;;;;;;;22.63;87.48;97449.81;4987456;28;20238;-65
2021/09/10 10:59:27;;;;;;;6.43;5.83;;;;;;;22.62;87.49;97440.38;4993211;28;20927;-65
2021/09/10 11:04:49;;;;;;;6.27;5.67;;;;;;;22.62;87.60;97442.09;4998463;28;20720;-65
2021/09/10 11:07:23;;;;;;;6.03;5.53;;;;;;;22.62;87.62;97435.25;4996372;28;20225;-65
2021/09/10 11:10:06;;;;;;;5.57;5.03;;;;;;;22.62;87.56;97435.25;4993095;28;20246;-65
2021/09/10 11:12:33;;;;;;;6.40;5.80;;;;;;;22.62;87.49;97427.56;4992705;28;20266;-65
2021/09/10 11:15:14;;;;;;;6.87;5.53;;;;;;;22.62;87.45;97434.41;4993777;28;20202;-66
2021/09/10 11:17:42;;;;;;;5.97;5.47;;;;;;;22.62;87.45;97436.97;4993861;28;20249;-66
2021/09/10 11:20:09;;;;;;;6.00;5.37;;;;;;;22.62;87.45;97431.84;4986363;28;20249;-66
2021/09/10 11:22:48;;;;;;;6.07;5.57;;;;;;;22.62;87.49;97429.28;5003597;28;20605;-65
2021/09/10 11:25:14;;;;;;;5.77;5.20;;;;;;;22.62;87.39;97432.69;4986922;28;20257;-66
2021/09/10 11:27:41;;;;;;;5.77;5.27;;;;;;;22.63;87.53;97431.88;4993402;28;20578;-66
2021/09/10 11:30:11;;;;;;;5.90;5.10;;;;;;;22.63;87.53;97423.31;5002001;28;20310;-65
2021/09/10 11:32:38;;;;;;;5.70;5.20;;;;;;;22.41;87.17;97388.63;4992788;28;20273;-66
2021/09/10 11:35:22;;;;;;;6.70;5.40;;;;;;;22.62;87.39;97421.59;5001276;28;20285;-66
2021/09/10 11:37:56;;;;;;;5.50;5.10;;;;;;;22.61;87.45;97418.16;4993953;28;20243;-65
2021/09/10 11:40:31;;;;;;;5.77;5.23;;;;;;;22.63;87.30;97420.75;4994144;28;20207;-66
2021/09/10 11:43:03;;;;;;;5.93;5.43;;;;;;;22.30;87.41;97361.91;5021144;22;20284;-71